| time (UTC) | temp F | wind direction | speed MPH | gust MPH | rain 1hr in | rain 24hr in | rain mn in | humidity % | barometer mb |
| 20260507002221 | 51 | 355 | 2.0 | 4.0 | 0.00 | 1.23 | 0.00 | 93 | 1011.3 |
| 20260507001734 | 51 | 360 | 2.0 | 4.0 | 0.00 | 1.23 | 0.00 | 93 | 1011.3 |
| 20260507001247 | 51 | 16 | 3.0 | 4.0 | 0.00 | 1.23 | 0.00 | 94 | 1011.3 |
| 20260507000757 | 51 | 36 | 3.0 | 6.0 | 0.00 | 1.23 | 0.00 | 94 | 1011.4 |
| 20260507000221 | 51 | 355 | 3.0 | 6.0 | 0.00 | 1.23 | 0.00 | 94 | 1011.4 |
| 20260506235734 | 50 | 332 | 3.0 | 5.0 | 0.00 | 1.23 | 0.00 | 94 | 1011.5 |
| 20260506235241 | 50 | 360 | 3.0 | 8.0 | 0.00 | 1.23 | 0.00 | 94 | 1011.4 |
| 20260506234724 | 50 | 9 | 4.0 | 8.0 | 0.00 | 1.23 | 0.00 | 95 | 1011.4 |
| 20260506234235 | 50 | 11 | 3.0 | 9.0 | 0.00 | 1.23 | 0.00 | 95 | 1011.4 |
| 20260506233729 | 50 | 26 | 4.0 | 9.0 | 0.00 | 1.23 | 0.00 | 95 | 1011.5 |
| 20260506233233 | 50 | 334 | 4.0 | 10.0 | 0.00 | 1.23 | 0.00 | 96 | 1011.4 |
| 20260506232726 | 50 | 360 | 5.0 | 10.0 | 0.00 | 1.23 | 0.00 | 96 | 1011.5 |
| 20260506232231 | 50 | 340 | 5.0 | 10.0 | 0.00 | 1.23 | 0.00 | 96 | 1011.4 |
| 20260506231729 | 50 | 355 | 4.0 | 10.0 | 0.00 | 1.23 | 0.00 | 96 | 1011.4 |
| 20260506231222 | 50 | 355 | 5.0 | 12.0 | 0.00 | 1.23 | 0.00 | 96 | 1011.4 |
| 20260506230732 | 50 | 355 | 6.0 | 12.0 | 0.00 | 1.23 | 0.00 | 96 | 1011.3 |
| 20260506230246 | 50 | 5 | 6.0 | 11.0 | 0.00 | 1.23 | 0.00 | 96 | 1011.4 |
| 20260506225731 | 50 | 355 | 4.0 | 9.0 | 0.00 | 1.23 | 0.00 | 96 | 1011.4 |
| 20260506225225 | 50 | 329 | 3.0 | 8.0 | 0.00 | 1.23 | 0.00 | 96 | 1011.3 |
| 20260506224739 | 50 | 13 | 4.0 | 7.0 | 0.00 | 1.23 | 0.00 | 96 | 1011.4 |
| 20260506224224 | 50 | 360 | 3.0 | 8.0 | 0.00 | 1.23 | 0.00 | 96 | 1011.2 |
| 20260506223737 | 50 | 333 | 3.0 | 8.0 | 0.00 | 1.23 | 0.00 | 96 | 1011.1 |
| 20260506223227 | 50 | 355 | 5.0 | 8.0 | 0.00 | 1.23 | 0.00 | 96 | 1011.1 |
| 20260506222737 | 50 | 355 | 4.0 | 9.0 | 0.00 | 1.23 | 0.00 | 96 | 1011.1 |
| 20260506222238 | 50 | 5 | 5.0 | 9.0 | 0.00 | 1.23 | 0.00 | 96 | 1011.1 |
| 20260506221732 | 50 | 10 | 4.0 | 8.0 | 0.00 | 1.23 | 0.00 | 96 | 1011.1 |
| 20260506221238 | 50 | 9 | 4.0 | 8.0 | 0.00 | 1.23 | 0.00 | 97 | 1011.1 |
| 20260506220727 | 51 | 5 | 3.0 | 8.0 | 0.00 | 1.23 | 0.00 | 96 | 1011.1 |
| 20260506220221 | 50 | 5 | 4.0 | 8.0 | 0.00 | 1.23 | 0.00 | 96 | 1011.2 |
| 20260506215754 | 51 | 360 | 4.0 | 9.0 | 0.00 | 1.23 | 2.47 | 97 | 1011.1 |
| 20260506215241 | 51 | 360 | 6.0 | 9.0 | 0.00 | 1.23 | 2.47 | 97 | 1011.1 |
| 20260506214747 | 51 | 19 | 4.0 | 9.0 | 0.00 | 1.23 | 2.47 | 97 | 1011.1 |
| 20260506214238 | 51 | 360 | 4.0 | 9.0 | 0.00 | 1.23 | 2.47 | 97 | 1011.2 |
| 20260506213742 | 51 | 360 | 4.0 | 8.0 | 0.00 | 1.23 | 2.47 | 97 | 1011.1 |
| 20260506213235 | 51 | 355 | 4.0 | 8.0 | 0.00 | 1.23 | 2.47 | 97 | 1011.2 |
| 20260506212748 | 51 | 319 | 4.0 | 6.0 | 0.00 | 1.23 | 2.47 | 97 | 1011.1 |
| 20260506212246 | 51 | 333 | 3.0 | 6.0 | 0.00 | 1.23 | 2.47 | 97 | 1011.1 |
| 20260506211739 | 51 | 351 | 3.0 | 6.0 | 0.00 | 1.23 | 2.47 | 97 | 1011.0 |
| 20260506211313 | 51 | 348 | 4.0 | 6.0 | 0.00 | 1.23 | 2.47 | 97 | 1011.0 |
| 20260506210740 | 51 | 360 | 4.0 | 6.0 | 0.00 | 1.23 | 2.47 | 97 | 1011.0 |
| 20260506210249 | 51 | 342 | 2.0 | 5.0 | 0.00 | 1.23 | 2.47 | 97 | 1010.9 |
| 20260506205741 | 51 | 331 | 4.0 | 5.0 | 0.00 | 1.24 | 2.47 | 96 | 1010.9 |
| 20260506205239 | 51 | 343 | 3.0 | 5.0 | 0.00 | 1.24 | 2.47 | 96 | 1010.8 |
| 20260506204724 | 51 | 335 | 2.0 | 5.0 | 0.00 | 1.24 | 2.47 | 96 | 1010.9 |
| 20260506204239 | 51 | 306 | 2.0 | 6.0 | 0.00 | 1.24 | 2.47 | 96 | 1010.9 |
| 20260506203743 | 51 | 355 | 3.0 | 6.0 | 0.00 | 1.24 | 2.47 | 96 | 1010.8 |
| 20260506203236 | 51 | 309 | 3.0 | 5.0 | 0.00 | 1.24 | 2.47 | 96 | 1010.9 |
| 20260506202751 | 51 | 5 | 2.0 | 5.0 | 0.00 | 1.24 | 2.47 | 96 | 1010.8 |
| 20260506202251 | 51 | 342 | 3.0 | 5.0 | 0.04 | 1.24 | 2.47 | 96 | 1010.8 |
| 20260506201728 | 51 | 17 | 2.0 | 5.0 | 0.04 | 1.24 | 2.47 | 96 | 1010.8 |
| 20260506201239 | 51 | 22 | 3.0 | 5.0 | 0.04 | 1.24 | 2.47 | 96 | 1010.9 |
| 20260506200748 | 51 | 36 | 1.0 | 5.0 | 0.04 | 1.24 | 2.47 | 96 | 1010.8 |
| 20260506200241 | 51 | 57 | 3.0 | 5.0 | 0.04 | 1.24 | 2.47 | 96 | 1010.8 |
| 20260506195724 | 51 | 319 | 1.0 | 3.0 | 0.04 | 1.25 | 2.47 | 96 | 1010.7 |
| 20260506195231 | 51 | 350 | 2.0 | 3.0 | 0.04 | 1.25 | 2.47 | 96 | 1010.6 |
| 20260506194740 | 51 | 30 | 0.0 | 4.0 | 0.04 | 1.25 | 2.47 | 96 | 1010.5 |
| 20260506194233 | 51 | 44 | 2.0 | 4.0 | 0.04 | 1.25 | 2.47 | 96 | 1010.4 |
| 20260506193744 | 51 | 319 | 1.0 | 8.0 | 0.08 | 1.25 | 2.47 | 96 | 1010.2 |
| 20260506193249 | 51 | 321 | 3.0 | 8.0 | 0.12 | 1.25 | 2.47 | 96 | 1010.1 |
| 20260506192733 | 51 | 304 | 2.0 | 6.0 | 0.20 | 1.25 | 2.47 | 96 | 1010.1 |
| 20260506192242 | 51 | 275 | 3.0 | 6.0 | 0.24 | 1.24 | 2.46 | 96 | 1009.9 |
| 20260506191739 | 51 | 5 | 3.0 | 6.0 | 0.43 | 1.24 | 2.46 | 96 | 1009.8 |
| 20260506191229 | 51 | 10 | 2.0 | 10.0 | 0.87 | 1.24 | 2.46 | 96 | 1009.8 |
| 20260506190733 | 51 | 62 | 2.0 | 10.0 | 1.06 | 1.24 | 2.46 | 96 | 1009.6 |
| 20260506190222 | 51 | 36 | 4.0 | 11.0 | 1.10 | 1.24 | 2.46 | 95 | 1009.5 |
| 20260506185732 | 51 | 355 | 6.0 | 12.0 | 1.14 | 1.25 | 2.46 | 95 | 1009.2 |
| 20260506185243 | 51 | 348 | 8.0 | 15.0 | 1.14 | 1.25 | 2.46 | 95 | 1009.2 |
| 20260506184726 | 52 | 5 | 6.0 | 15.0 | 1.18 | 1.25 | 2.46 | 95 | 1009.1 |
| 20260506184234 | 52 | 50 | 9.0 | 14.0 | 1.18 | 1.25 | 2.46 | 96 | 1009.0 |
| 20260506183743 | 52 | 45 | 8.0 | 14.0 | 1.14 | 1.24 | 2.46 | 96 | 1009.5 |
| 20260506183252 | 52 | 54 | 9.0 | 14.0 | 1.10 | 1.24 | 2.45 | 96 | 1009.6 |
| 20260506182731 | 52 | 36 | 4.0 | 6.0 | 1.02 | 1.23 | 2.43 | 96 | 1010.3 |
| 20260506182242 | 52 | 293 | 2.0 | 9.0 | 0.91 | 1.22 | 2.41 | 96 | 1010.4 |
| 20260506181724 | 52 | 229 | 6.0 | 10.0 | 0.75 | 1.20 | 2.38 | 96 | 1010.3 |
| 20260506181226 | 52 | 237 | 7.0 | 11.0 | 0.28 | 1.16 | 2.28 | 96 | 1009.9 |
| 20260506180722 | 53 | 243 | 5.0 | 9.0 | 0.12 | 1.14 | 2.25 | 96 | 1009.8 |
| 20260506180229 | 53 | 257 | 3.0 | 4.0 | 0.08 | 1.14 | 2.24 | 96 | 1009.4 |
| 20260506175745 | 53 | 330 | 0.0 | 4.0 | 0.04 | 1.16 | 2.24 | 96 | 1009.0 |
| 20260506175305 | 53 | 302 | 2.0 | 4.0 | 0.04 | 1.16 | 2.24 | 96 | 1008.9 |
| 20260506174722 | 53 | 313 | 2.0 | 4.0 | 0.00 | 1.15 | 2.23 | 96 | 1008.7 |
| 20260506174245 | 53 | 287 | 2.0 | 3.0 | 0.00 | 1.15 | 2.23 | 96 | 1008.6 |
| 20260506173731 | 53 | 322 | 1.0 | 5.0 | 0.00 | 1.15 | 2.23 | 96 | 1008.5 |
| 20260506173242 | 53 | 324 | 3.0 | 5.0 | 0.00 | 1.15 | 2.23 | 96 | 1008.4 |
| 20260506172741 | 53 | 323 | 2.0 | 3.0 | 0.00 | 1.15 | 2.23 | 96 | 1008.3 |
| 20260506172221 | 53 | 346 | 1.0 | 3.0 | 0.00 | 1.15 | 2.23 | 96 | 1008.3 |
| 20260506171809 | 53 | 333 | 0.0 | 2.0 | 0.00 | 1.15 | 2.23 | 96 | 1008.3 |
| 20260506171239 | 53 | 40 | 0.0 | 3.0 | 0.00 | 1.15 | 2.23 | 96 | 1008.2 |
| 20260506170720 | 53 | 42 | 1.0 | 7.0 | 0.00 | 1.15 | 2.23 | 96 | 1008.2 |
| 20260506170233 | 53 | 66 | 2.0 | 7.0 | 0.00 | 1.15 | 2.23 | 96 | 1008.1 |
| 20260506165746 | 53 | 46 | 3.0 | 6.0 | 0.00 | 1.17 | 2.23 | 96 | 1008.2 |
| 20260506165238 | 53 | 79 | 3.0 | 8.0 | 0.00 | 1.17 | 2.23 | 96 | 1008.1 |
| 20260506164723 | 53 | 44 | 4.0 | 10.0 | 0.00 | 1.17 | 2.23 | 96 | 1008.0 |
| 20260506164237 | 53 | 32 | 4.0 | 10.0 | 0.00 | 1.17 | 2.23 | 96 | 1008.0 |
| 20260506163750 | 53 | 41 | 3.0 | 10.0 | 0.00 | 1.17 | 2.23 | 96 | 1007.9 |
| 20260506163240 | 53 | 5 | 5.0 | 10.0 | 0.00 | 1.17 | 2.23 | 96 | 1008.0 |
| 20260506162752 | 54 | 355 | 5.0 | 10.0 | 0.00 | 1.17 | 2.23 | 96 | 1007.7 |
| 20260506162247 | 54 | 327 | 4.0 | 9.0 | 0.00 | 1.17 | 2.23 | 96 | 1007.7 |
| 20260506161745 | 54 | 17 | 5.0 | 10.0 | 0.00 | 1.17 | 2.23 | 97 | 1007.6 |
| 20260506161237 | 54 | 51 | 5.0 | 11.0 | 0.00 | 1.17 | 2.23 | 96 | 1007.3 |
| 20260506160727 | 54 | 340 | 7.0 | 11.0 | 0.00 | 1.17 | 2.23 | 97 | 1007.0 |
| 20260506160301 | 54 | 355 | 6.0 | 11.0 | 0.00 | 1.17 | 2.23 | 97 | 1007.0 |
| 20260506155748 | 54 | 46 | 5.0 | 11.0 | 0.00 | 1.20 | 2.23 | 97 | 1006.9 |
| 20260506155300 | 54 | 20 | 6.0 | 11.0 | 0.00 | 1.20 | 2.23 | 97 | 1006.9 |
| 20260506154722 | 55 | 355 | 5.0 | 11.0 | 0.04 | 1.20 | 2.23 | 97 | 1007.1 |
| 20260506154255 | 55 | 347 | 4.0 | 10.0 | 0.12 | 1.20 | 2.23 | 97 | 1007.3 |
| 20260506153727 | 55 | 26 | 5.0 | 10.0 | 0.28 | 1.20 | 2.23 | 97 | 1007.4 |
| 20260506153240 | 55 | 355 | 4.0 | 8.0 | 0.67 | 1.20 | 2.23 | 97 | 1007.4 |
| 20260506152724 | 55 | 17 | 3.0 | 8.0 | 1.18 | 1.20 | 2.23 | 97 | 1007.6 |
| 20260506152238 | 55 | 20 | 4.0 | 9.0 | 1.57 | 1.20 | 2.23 | 97 | 1007.7 |
| 20260506151723 | 55 | 347 | 4.0 | 10.0 | 1.97 | 1.20 | 2.23 | 97 | 1007.6 |
| 20260506151237 | 54 | 340 | 5.0 | 10.0 | 2.09 | 1.20 | 2.23 | 97 | 1007.5 |
| 20260506150746 | 54 | 355 | 5.0 | 9.0 | 2.24 | 1.20 | 2.23 | 97 | 1007.6 |
| 20260506150228 | 54 | 348 | 3.0 | 8.0 | 2.64 | 1.20 | 2.23 | 97 | 1007.7 |
| 20260506145757 | 54 | 5 | 4.0 | 8.0 | 2.76 | 1.20 | 2.23 | 97 | 1007.8 |
| 20260506145248 | 53 | 355 | 3.0 | 11.0 | 2.83 | 1.20 | 2.23 | 96 | 1007.9 |
| 20260506144740 | 53 | 40 | 4.0 | 11.0 | 2.80 | 1.20 | 2.22 | 96 | 1007.8 |
| 20260506144220 | 53 | 28 | 6.0 | 10.0 | 2.76 | 1.19 | 2.20 | 96 | 1008.0 |
| 20260506143733 | 53 | 51 | 6.0 | 10.0 | 2.83 | 1.17 | 2.17 | 96 | 1007.9 |
| 20260506143227 | 53 | 275 | 4.0 | 9.0 | 3.23 | 1.13 | 2.09 | 96 | 1008.1 |
| 20260506142739 | 54 | 9 | 5.0 | 11.0 | 3.94 | 1.08 | 1.99 | 95 | 1008.0 |
| 20260506142236 | 54 | 313 | 5.0 | 16.0 | 4.49 | 1.03 | 1.89 | 96 | 1008.1 |
| 20260506141730 | 55 | 29 | 8.0 | 16.0 | 5.08 | 1.00 | 1.83 | 96 | 1007.9 |
| 20260506141243 | 55 | 5 | 7.0 | 14.0 | 5.83 | 9.96 | 1.81 | 96 | 1007.3 |
| 20260506140722 | 55 | 5 | 6.0 | 14.0 | 6.26 | 9.76 | 1.77 | 96 | 1007.8 |
| 20260506140235 | 55 | 355 | 7.0 | 11.0 | 6.30 | 9.41 | 1.70 | 96 | 1007.9 |
| 20260506135727 | 55 | 78 | 5.0 | 15.0 | 6.34 | 9.29 | 1.67 | 95 | 1007.8 |
| 20260506135240 | 55 | 89 | 9.0 | 15.0 | 6.34 | 9.25 | 1.66 | 95 | 1007.8 |
| 20260506134724 | 55 | 80 | 9.0 | 19.0 | 6.34 | 9.25 | 1.66 | 95 | 1007.8 |
| 20260506134237 | 55 | 86 | 11.0 | 19.0 | 6.30 | 9.21 | 1.65 | 95 | 1007.6 |
| 20260506133732 | 55 | 84 | 6.0 | 9.0 | 6.06 | 8.98 | 1.61 | 93 | 1008.1 |
| 20260506133234 | 56 | 227 | 5.0 | 8.0 | 5.24 | 8.15 | 1.44 | 93 | 1008.6 |
| 20260506132748 | 57 | 282 | 4.0 | 8.0 | 4.06 | 6.97 | 1.20 | 93 | 1008.3 |
| 20260506132235 | 57 | 38 | 3.0 | 12.0 | 2.99 | 5.91 | 0.99 | 93 | 1008.2 |
| 20260506131743 | 58 | 119 | 8.0 | 12.0 | 2.05 | 4.96 | 0.80 | 93 | 1008.0 |
| 20260506131234 | 58 | 59 | 4.0 | 9.0 | 1.10 | 4.02 | 0.61 | 93 | 1008.2 |
| 20260506130743 | 58 | 81 | 4.0 | 9.0 | 0.63 | 3.54 | 0.52 | 93 | 1008.2 |
| 20260506130246 | 59 | 105 | 6.0 | 15.0 | 0.24 | 3.15 | 0.44 | 92 | 1008.0 |
| 20260506125738 | 59 | 103 | 8.0 | 16.0 | 0.04 | 2.99 | 0.40 | 92 | 1008.0 |
| 20260506125232 | 59 | 101 | 5.0 | 14.0 | 0.00 | 2.95 | 0.39 | 91 | 1008.1 |
| 20260506124745 | 59 | 85 | 8.0 | 19.0 | 0.00 | 2.95 | 0.39 | 91 | 1008.0 |
| 20260506124229 | 60 | 143 | 11.0 | 19.0 | 0.00 | 2.95 | 0.39 | 90 | 1007.9 |
| 20260506123722 | 60 | 163 | 5.0 | 16.0 | 0.00 | 2.95 | 0.39 | 90 | 1008.0 |
| 20260506123234 | 60 | 144 | 10.0 | 16.0 | 0.00 | 2.95 | 0.39 | 90 | 1007.9 |
| 20260506122747 | 60 | 128 | 8.0 | 18.0 | 0.00 | 2.95 | 0.39 | 91 | 1007.9 |
| 20260506122258 | 60 | 107 | 7.0 | 18.0 | 0.00 | 2.95 | 0.39 | 90 | 1007.9 |
| 20260506121722 | 60 | 74 | 10.0 | 18.0 | 0.00 | 2.95 | 0.39 | 89 | 1007.9 |
| 20260506121234 | 61 | 113 | 10.0 | 16.0 | 0.00 | 2.95 | 0.39 | 87 | 1007.8 |
| 20260506120723 | 61 | 86 | 5.0 | 19.0 | 0.00 | 2.95 | 0.39 | 86 | 1007.9 |
| 20260506120233 | 62 | 167 | 6.0 | 19.0 | 0.00 | 2.95 | 0.39 | 87 | 1007.9 |
| 20260506115725 | 62 | 126 | 7.0 | 17.0 | 0.00 | 3.19 | 0.39 | 86 | 1008.0 |
| 20260506115225 | 62 | 163 | 9.0 | 17.0 | 0.00 | 3.19 | 0.39 | 86 | 1007.9 |
| 20260506114738 | 62 | 128 | 5.0 | 21.0 | 0.00 | 3.19 | 0.39 | 88 | 1007.8 |
| 20260506114228 | 61 | 94 | 12.0 | 18.0 | 0.00 | 3.19 | 0.39 | 86 | 1007.7 |
| 20260506113741 | 62 | 88 | 11.0 | 21.0 | 0.00 | 3.19 | 0.39 | 89 | 1007.7 |
| 20260506113226 | 61 | 149 | 13.0 | 21.0 | 0.00 | 3.19 | 0.39 | 90 | 1007.9 |
| 20260506112720 | 59 | 97 | 9.0 | 18.0 | 0.00 | 3.19 | 0.39 | 91 | 1007.9 |
| 20260506112225 | 59 | 94 | 12.0 | 18.0 | 0.00 | 3.19 | 0.39 | 91 | 1007.9 |
| 20260506111739 | 58 | 118 | 11.0 | 20.0 | 0.00 | 3.19 | 0.39 | 91 | 1008.0 |
| 20260506111232 | 59 | 124 | 11.0 | 20.0 | 0.00 | 3.19 | 0.39 | 90 | 1008.2 |
| 20260506110740 | 59 | 123 | 12.0 | 18.0 | 0.00 | 3.19 | 0.39 | 90 | 1008.2 |
| 20260506110225 | 59 | 126 | 9.0 | 16.0 | 0.04 | 3.19 | 0.39 | 91 | 1008.2 |
| 20260506105740 | 59 | 134 | 7.0 | 16.0 | 0.04 | 3.43 | 0.39 | 92 | 1008.3 |
| 20260506105230 | 59 | 130 | 8.0 | 21.0 | 0.04 | 3.43 | 0.39 | 92 | 1008.4 |
| 20260506104734 | 58 | 78 | 15.0 | 21.0 | 0.04 | 3.43 | 0.39 | 93 | 1008.3 |
| 20260506104228 | 58 | 90 | 9.0 | 17.0 | 0.04 | 3.43 | 0.39 | 94 | 1008.3 |
| 20260506103741 | 58 | 111 | 10.0 | 16.0 | 0.04 | 3.43 | 0.39 | 95 | 1008.5 |
| 20260506103254 | 58 | 115 | 8.0 | 17.0 | 0.04 | 3.43 | 0.39 | 96 | 1008.5 |
| 20260506102738 | 58 | 126 | 9.0 | 19.0 | 0.04 | 3.43 | 0.39 | 97 | 1008.4 |
| 20260506102232 | 57 | 105 | 11.0 | 19.0 | 0.04 | 3.43 | 0.39 | 97 | 1008.5 |
| 20260506101741 | 57 | 112 | 10.0 | 20.0 | 0.04 | 3.43 | 0.39 | 98 | 1008.5 |
| 20260506101226 | 57 | 109 | 8.0 | 20.0 | 0.04 | 3.43 | 0.39 | 98 | 1008.5 |
| 20260506100735 | 57 | 98 | 11.0 | 19.0 | 0.04 | 3.43 | 0.39 | 98 | 1008.5 |
| 20260506100227 | 56 | 77 | 11.0 | 19.0 | 0.00 | 3.39 | 0.39 | 98 | 1008.4 |
| 20260506095738 | 56 | 148 | 6.0 | 17.0 | 0.00 | 3.58 | 0.39 | 98 | 1008.4 |
| 20260506095223 | 56 | 92 | 9.0 | 16.0 | 0.00 | 3.58 | 0.39 | 98 | 1008.4 |
| 20260506094736 | 56 | 80 | 9.0 | 16.0 | 0.00 | 3.58 | 0.39 | 98 | 1008.5 |
| 20260506094250 | 55 | 108 | 8.0 | 18.0 | 0.00 | 3.58 | 0.39 | 98 | 1008.5 |
| 20260506093722 | 56 | 110 | 9.0 | 18.0 | 0.04 | 3.58 | 0.39 | 98 | 1008.4 |
| 20260506093224 | 55 | 105 | 8.0 | 15.0 | 0.04 | 3.58 | 0.39 | 98 | 1008.5 |
| 20260506092806 | 55 | 122 | 9.0 | 15.0 | 0.16 | 3.58 | 0.39 | 98 | 1008.5 |
| 20260506092228 | 55 | 132 | 7.0 | 19.0 | 0.35 | 3.58 | 0.39 | 98 | 1008.4 |
| 20260506091721 | 54 | 85 | 11.0 | 19.0 | 0.55 | 3.58 | 0.39 | 98 | 1008.4 |
| 20260506091234 | 54 | 116 | 9.0 | 18.0 | 0.63 | 3.58 | 0.39 | 98 | 1008.4 |
| 20260506090740 | 54 | 120 | 6.0 | 17.0 | 0.71 | 3.58 | 0.39 | 98 | 1008.2 |
| 20260506090223 | 54 | 139 | 6.0 | 12.0 | 0.79 | 3.58 | 0.39 | 98 | 1007.9 |
| 20260506085737 | 54 | 69 | 4.0 | 13.0 | 0.83 | 3.74 | 0.39 | 98 | 1008.0 |
| 20260506085230 | 54 | 85 | 5.0 | 13.0 | 0.87 | 3.74 | 0.39 | 98 | 1008.0 |
| 20260506084724 | 54 | 74 | 5.0 | 13.0 | 0.91 | 3.74 | 0.39 | 98 | 1008.0 |
| 20260506084237 | 54 | 113 | 8.0 | 14.0 | 0.94 | 3.74 | 0.39 | 98 | 1008.3 |
| 20260506083811 | 54 | 87 | 8.0 | 15.0 | 0.91 | 3.70 | 0.38 | 98 | 1008.5 |
| 20260506083729 | 54 | 87 | 8.0 | 15.0 | 0.91 | 3.70 | 0.38 | 98 | 1008.5 |
| 20260506083221 | 54 | 113 | 6.0 | 15.0 | 0.91 | 3.66 | 0.37 | 98 | 1008.5 |
| 20260506082734 | 54 | 107 | 7.0 | 13.0 | 0.71 | 3.46 | 0.33 | 98 | 1008.6 |
| 20260506082248 | 54 | 105 | 7.0 | 17.0 | 0.63 | 3.39 | 0.31 | 98 | 1008.5 |
| 20260506081734 | 54 | 162 | 8.0 | 17.0 | 0.47 | 3.19 | 0.28 | 98 | 1008.6 |
| 20260506081247 | 54 | 101 | 7.0 | 17.0 | 0.43 | 3.11 | 0.26 | 98 | 1008.6 |
| 20260506080735 | 55 | 107 | 8.0 | 17.0 | 0.35 | 3.03 | 0.24 | 98 | 1008.7 |
| 20260506080228 | 55 | 146 | 11.0 | 17.0 | 0.28 | 2.95 | 0.23 | 98 | 1008.6 |
| 20260506073223 | 55 | 138 | 7.0 | 19.0 | 0.12 | 3.11 | 0.19 | 98 | 1008.6 |
| 20260506072726 | 55 | 136 | 10.0 | 19.0 | 0.12 | 3.11 | 0.19 | 98 | 1008.5 |
| 20260506072235 | 55 | 117 | 6.0 | 12.0 | 0.12 | 3.11 | 0.19 | 98 | 1008.5 |
| 20260506071730 | 55 | 108 | 8.0 | 17.0 | 0.08 | 3.07 | 0.18 | 98 | 1008.5 |
| 20260506071242 | 55 | 84 | 9.0 | 18.0 | 0.04 | 3.03 | 0.17 | 98 | 1008.6 |
| 20260506070748 | 55 | 129 | 7.0 | 14.0 | 0.04 | 3.03 | 0.17 | 98 | 1008.7 |
| 20260506070241 | 55 | 106 | 6.0 | 12.0 | 0.04 | 3.03 | 0.17 | 98 | 1008.6 |
| 20260506062230 | 55 | 104 | 8.0 | 14.0 | 0.08 | 3.90 | 0.17 | 98 | 1008.8 |
| 20260506061723 | 55 | 130 | 5.0 | 11.0 | 0.08 | 3.90 | 0.17 | 98 | 1008.9 |
| 20260506061237 | 55 | 153 | 5.0 | 11.0 | 0.12 | 3.90 | 0.17 | 98 | 1008.9 |
| 20260506060745 | 55 | 101 | 5.0 | 11.0 | 0.12 | 3.90 | 0.17 | 98 | 1008.9 |
| 20260506060227 | 54 | 101 | 6.0 | 14.0 | 0.12 | 3.90 | 0.17 | 98 | 1008.7 |
| 20260506051246 | 54 | 76 | 7.0 | 12.0 | 0.16 | 3.90 | 0.14 | 98 | 1009.0 |
| 20260506050754 | 54 | 115 | 7.0 | 12.0 | 0.16 | 3.90 | 0.14 | 98 | 1009.1 |
| 20260506050227 | 54 | 115 | 6.0 | 12.0 | 0.16 | 3.90 | 0.14 | 98 | 1009.3 |
| 20260506044738 | 54 | 129 | 4.0 | 9.0 | 0.16 | 3.90 | 0.14 | 98 | 1009.3 |
| 20260506044249 | 54 | 98 | 2.0 | 9.0 | 0.12 | 3.86 | 0.13 | 98 | 1009.4 |
| 20260506043732 | 54 | 133 | 4.0 | 10.0 | 0.12 | 3.86 | 0.13 | 98 | 1009.5 |
| 20260506043222 | 54 | 132 | 5.0 | 12.0 | 0.12 | 3.86 | 0.13 | 98 | 1009.5 |
| 20260506042734 | 54 | 134 | 4.0 | 12.0 | 0.08 | 3.82 | 0.13 | 98 | 1009.4 |
| 20260506042244 | 54 | 128 | 3.0 | 9.0 | 0.08 | 3.78 | 0.12 | 98 | 1009.5 |
| 20260506041728 | 54 | 121 | 5.0 | 9.0 | 0.08 | 3.78 | 0.12 | 98 | 1009.4 |
| 20260506041222 | 54 | 105 | 3.0 | 8.0 | 0.08 | 3.74 | 0.11 | 98 | 1009.7 |
| 20260506040730 | 54 | 111 | 4.0 | 10.0 | 0.12 | 3.74 | 0.11 | 98 | 1009.6 |
| 20260506040244 | 54 | 128 | 5.0 | 10.0 | 0.12 | 3.74 | 0.11 | 98 | 1009.6 |
| 20260506035729 | 54 | 139 | 5.0 | 10.0 | 0.12 | 3.74 | 0.11 | 98 | 1009.6 |
| 20260506035220 | 54 | 107 | 4.0 | 10.0 | 0.12 | 3.74 | 0.11 | 98 | 1009.6 |
| 20260506034733 | 54 | 136 | 3.0 | 12.0 | 0.12 | 3.74 | 0.11 | 98 | 1009.6 |
| 20260506034230 | 54 | 101 | 5.0 | 8.0 | 0.16 | 3.74 | 0.11 | 98 | 1009.5 |
| 20260506033724 | 54 | 175 | 4.0 | 9.0 | 0.16 | 3.74 | 0.11 | 98 | 1009.6 |
| 20260506033238 | 54 | 112 | 3.0 | 9.0 | 0.20 | 3.74 | 0.11 | 98 | 1009.5 |
| 20260506032722 | 54 | 119 | 3.0 | 7.0 | 0.20 | 3.74 | 0.11 | 98 | 1009.6 |
| 20260506032234 | 54 | 142 | 4.0 | 9.0 | 0.16 | 3.70 | 0.10 | 98 | 1009.5 |
| 20260506031728 | 54 | 105 | 5.0 | 9.0 | 0.16 | 3.70 | 0.10 | 98 | 1009.5 |
| 20260506031232 | 55 | 134 | 5.0 | 9.0 | 0.12 | 3.66 | 0.09 | 98 | 1009.5 |
| 20260506030721 | 55 | 136 | 4.0 | 8.0 | 0.08 | 3.62 | 0.09 | 98 | 1009.7 |
| 20260506030233 | 55 | 107 | 4.0 | 7.0 | 0.08 | 3.62 | 0.09 | 98 | 1009.9 |
| 20260506025726 | 55 | 179 | 3.0 | 8.0 | 0.08 | 3.62 | 0.09 | 98 | 1010.0 |
| 20260506025300 | 55 | 130 | 4.0 | 8.0 | 0.08 | 3.62 | 0.09 | 98 | 1010.3 |
| 20260506024752 | 55 | 132 | 2.0 | 7.0 | 0.08 | 3.62 | 0.09 | 98 | 1010.3 |
| 20260506024229 | 55 | 133 | 3.0 | 8.0 | 0.04 | 3.58 | 0.08 | 98 | 1010.3 |
| 20260506023723 | 55 | 111 | 4.0 | 8.0 | 0.04 | 3.58 | 0.08 | 98 | 1010.4 |
| 20260506023225 | 55 | 137 | 4.0 | 8.0 | 0.00 | 3.54 | 0.07 | 98 | 1010.5 |
| 20260506022738 | 55 | 98 | 3.0 | 8.0 | 0.00 | 3.54 | 0.07 | 98 | 1010.5 |
| 20260506022248 | 55 | 93 | 3.0 | 8.0 | 0.00 | 3.54 | 0.07 | 98 | 1010.5 |
| 20260506021721 | 55 | 104 | 4.0 | 9.0 | 0.04 | 3.54 | 0.07 | 98 | 1010.5 |
| 20260506021224 | 55 | 119 | 3.0 | 9.0 | 0.08 | 3.54 | 0.07 | 98 | 1010.6 |
| 20260506020734 | 55 | 132 | 4.0 | 8.0 | 0.20 | 3.54 | 0.07 | 98 | 1010.6 |
| 20260506020305 | 55 | 136 | 4.0 | 10.0 | 0.24 | 3.54 | 0.07 | 98 | 1010.6 |
| 20260506015726 | 55 | 135 | 4.0 | 10.0 | 0.35 | 3.54 | 0.07 | 98 | 1010.6 |
| 20260506015220 | 55 | 116 | 3.0 | 8.0 | 0.35 | 3.54 | 0.07 | 98 | 1010.7 |
| 20260506014726 | 55 | 123 | 3.0 | 8.0 | 0.35 | 3.54 | 0.07 | 98 | 1010.6 |
| 20260506014220 | 55 | 111 | 3.0 | 7.0 | 0.35 | 3.54 | 0.07 | 98 | 1010.6 |
| 20260506013732 | 55 | 117 | 4.0 | 7.0 | 0.35 | 3.54 | 0.07 | 98 | 1010.6 |
| 20260506013245 | 55 | 129 | 3.0 | 7.0 | 0.35 | 3.54 | 0.07 | 98 | 1010.6 |
| 20260506012729 | 55 | 109 | 1.0 | 7.0 | 0.35 | 3.54 | 0.07 | 98 | 1010.6 |
| 20260506012221 | 55 | 125 | 2.0 | 8.0 | 0.35 | 3.54 | 0.07 | 98 | 1010.6 |
| 20260506011725 | 55 | 113 | 5.0 | 8.0 | 0.31 | 3.50 | 0.06 | 98 | 1010.5 |
| 20260506011309 | 55 | 82 | 4.0 | 9.0 | 0.28 | 3.46 | 0.06 | 98 | 1010.7 |
| 20260506010729 | 55 | 140 | 5.0 | 9.0 | 0.16 | 3.35 | 0.03 | 98 | 1010.8 |
| 20260506010222 | 55 | 109 | 3.0 | 8.0 | 0.08 | 3.27 | 0.02 | 98 | 1010.9 |
| 20260506005731 | 55 | 137 | 3.0 | 9.0 | 0.00 | 3.19 | 0.00 | 98 | 1010.8 |
| 20260506005235 | 55 | 125 | 5.0 | 11.0 | 0.00 | 3.19 | 0.00 | 98 | 1010.9 |
| 20260506004748 | 55 | 113 | 6.0 | 11.0 | 0.00 | 3.19 | 0.00 | 98 | 1011.0 |
| 20260506004219 | 55 | 111 | 4.0 | 9.0 | 0.00 | 3.19 | 0.00 | 98 | 1011.2 |
| 20260506003721 | 55 | 145 | 6.0 | 8.0 | 0.00 | 3.19 | 0.00 | 98 | 1011.2 |
| 20260506003224 | 55 | 134 | 2.0 | 7.0 | 0.00 | 3.19 | 0.00 | 98 | 1011.2 |
| 20260506002807 | 55 | 146 | 3.0 | 8.0 | 0.00 | 3.19 | 0.00 | 98 | 1011.3 |